Time;durP1;ratioP1;P1;durP2;ratioP2;P2;SDS_P1;SDS_P2;PMS_P1;PMS_P2;Temp;Humidity;BMP_temperature;BMP_pressure;BME280_temperature;BME280_humidity;BME280_pressure;Samples;Min_cycle;Max_cycle;Signal;HPM_P1;HPM_P2
2020/12/23 00:00:17;;;;;;;2.10;2.00;;;12.60;99.90;;;13.46;85.77;98026.16;5207463;28;20631;-74
2020/12/23 00:02:49;;;;;;;2.47;2.38;;;12.60;99.90;;;13.41;86.55;98028.47;5206659;28;20309;-74
2020/12/23 00:05:21;;;;;;;1.92;1.83;;;12.60;99.90;;;13.46;86.29;98027.03;5207340;28;20212;-74
2020/12/23 00:07:54;;;;;;;1.90;1.90;;;12.60;99.90;;;13.52;85.06;98022.19;5206971;28;20198;-75
2020/12/23 00:10:26;;;;;;;1.90;1.80;;;12.60;99.90;;;13.46;84.74;98021.88;5187090;28;20206;-74
2020/12/23 00:12:58;;;;;;;2.20;2.10;;;12.60;99.90;;;13.45;86.25;98019.25;5200171;28;20313;-75
2020/12/23 00:15:30;;;;;;;2.00;1.90;;;12.60;99.90;;;13.47;85.88;98017.63;5207411;28;20198;-74
2020/12/23 00:18:05;;;;;;;2.20;2.00;;;12.60;99.90;;;13.49;84.59;98016.03;5206789;28;20225;-74
2020/12/23 00:20:37;;;;;;;2.05;1.95;;;12.60;99.90;;;13.52;85.06;98014.47;5206925;28;20202;-75
2020/12/23 00:23:11;;;;;;;1.98;1.88;;;12.70;99.90;;;13.47;85.13;98013.38;5205619;28;20635;-74
2020/12/23 00:25:43;;;;;;;2.13;2.03;;;12.70;99.90;;;13.43;86.14;98010.59;5207671;28;20714;-74
2020/12/23 00:28:16;;;;;;;2.05;1.95;;;12.60;99.90;;;13.53;84.12;98015.34;5205629;28;20194;-74
2020/12/23 00:30:48;;;;;;;2.03;2.00;;;12.70;99.90;;;13.60;83.91;98013.97;5207229;28;20202;-74
2020/12/23 00:33:30;;;;;;;2.28;2.17;;;12.70;99.90;;;13.51;85.26;98012.72;5205505;28;20225;-77
2020/12/23 00:36:02;;;;;;;1.98;1.88;;;12.70;99.90;;;13.52;85.36;98011.91;5205831;28;20733;-77
2020/12/23 00:38:35;;;;;;;2.10;2.00;;;12.70;99.90;;;13.49;84.97;98011.75;5206791;28;20733;-76
2020/12/23 00:41:09;;;;;;;2.00;1.90;;;12.70;99.90;;;13.50;85.35;98004.94;5206502;28;20246;-75
2020/12/23 00:43:41;;;;;;;1.90;1.88;;;12.70;99.90;;;13.49;86.20;98006.63;5206708;28;20794;-74
2020/12/23 00:46:13;;;;;;;2.00;1.90;;;12.70;99.90;;;13.54;85.33;98013.69;5206185;28;20204;-74
2020/12/23 00:48:46;;;;;;;2.00;1.90;;;12.70;99.90;;;13.48;85.80;98010.00;5206191;28;20194;-77
2020/12/23 00:51:18;;;;;;;1.90;1.80;;;12.60;99.90;;;13.44;85.59;98002.94;5205924;28;20313;-78
2020/12/23 00:53:51;;;;;;;2.00;1.90;;;12.60;99.90;;;13.46;85.05;98006.47;5206022;28;20224;-75
2020/12/23 00:56:23;;;;;;;2.30;2.10;;;12.60;99.90;;;13.45;86.34;98007.31;5206240;28;20200;-75
2020/12/23 00:58:55;;;;;;;2.20;2.10;;;12.60;99.90;;;13.45;87.02;97999.59;5206374;28;20206;-75
2020/12/23 01:01:27;;;;;;;1.60;1.50;;;12.60;99.90;;;13.55;84.39;98010.31;5206020;28;20783;-74
2020/12/23 01:04:00;;;;;;;2.00;1.90;;;12.60;99.90;;;13.49;84.57;98005.75;5206189;28;20198;-74
2020/12/23 01:06:32;;;;;;;1.77;1.77;;;12.60;99.90;;;13.50;84.97;98010.94;5205857;28;20594;-74
2020/12/23 01:09:05;;;;;;;1.85;1.73;;;12.60;99.90;;;13.49;85.28;98009.19;5205531;28;20205;-75
2020/12/23 01:11:37;;;;;;;1.80;1.70;;;12.60;99.90;;;13.42;85.06;98003.69;5206780;28;20267;-75
2020/12/23 01:14:09;;;;;;;1.98;1.88;;;12.60;99.90;;;13.43;85.21;98008.91;5205712;28;20309;-75
2020/12/23 01:16:41;;;;;;;2.08;1.98;;;12.60;99.90;;;13.44;85.82;98002.06;5206444;28;20205;-74
2020/12/23 01:19:13;;;;;;;1.85;1.75;;;12.50;99.90;;;13.44;85.37;98008.09;5205332;28;20284;-74
2020/12/23 01:21:46;;;;;;;1.92;1.83;;;12.60;99.90;;;13.48;84.83;98007.44;5205790;28;20221;-74
2020/12/23 01:24:19;;;;;;;2.10;2.00;;;12.60;99.90;;;13.50;84.19;98008.38;5205293;28;20506;-74
2020/12/23 01:26:51;;;;;;;2.10;2.00;;;12.60;99.90;;;13.45;84.95;98009.00;5206194;28;20300;-74
2020/12/23 01:29:23;;;;;;;2.20;2.08;;;12.60;99.90;;;13.40;85.64;98011.31;5205463;28;20208;-74
2020/12/23 01:31:55;;;;;;;2.00;1.90;;;12.60;99.90;;;13.42;85.52;98007.16;5205469;28;20588;-75
2020/12/23 01:34:27;;;;;;;1.90;1.80;;;12.60;99.90;;;13.55;83.70;98018.00;5204597;28;20218;-76
2020/12/23 01:36:59;;;;;;;1.90;1.80;;;12.70;99.90;;;13.54;84.17;98018.81;5202106;28;20541;-77
2020/12/23 01:39:32;;;;;;;1.80;1.70;;;12.70;99.90;;;13.50;83.76;98022.91;5205155;28;20279;-76
2020/12/23 01:42:04;;;;;;;1.90;1.80;;;12.70;99.90;;;13.48;84.94;98019.41;5205631;28;20789;-74
2020/12/23 01:44:37;;;;;;;1.45;1.45;;;12.70;99.90;;;13.48;84.68;98014.28;5204379;28;20226;-74
2020/12/23 01:47:16;;;;;;;1.80;1.70;;;12.70;99.90;;;13.49;84.38;98006.63;5204402;28;20200;-74
2020/12/23 01:49:49;;;;;;;1.92;1.80;;;12.60;99.90;;;13.50;84.90;98013.50;5202303;28;20200;-75
2020/12/23 01:52:22;;;;;;;1.60;1.60;;;12.70;99.90;;;13.54;85.20;98008.56;5204820;28;20240;-74
2020/12/23 01:54:56;;;;;;;2.25;1.35;;;12.60;99.90;;;13.51;85.18;98001.56;5204176;28;20218;-74
2020/12/23 01:57:28;;;;;;;1.60;1.55;;;12.60;99.90;;;13.57;84.10;97999.28;5204299;28;20233;-74
2020/12/23 02:00:00;;;;;;;1.77;1.67;;;12.70;99.90;;;13.58;83.34;98001.03;5203292;28;20189;-75
2020/12/23 02:02:35;;;;;;;1.80;1.70;;;12.70;99.90;;;13.55;84.23;98005.16;5204996;28;20768;-74
2020/12/23 02:05:08;;;;;;;1.73;1.63;;;12.70;99.90;;;13.52;84.42;97996.50;5204461;28;20201;-74
2020/12/23 02:07:40;;;;;;;1.63;1.52;;;12.60;99.90;;;13.50;84.20;98003.25;5205348;28;20205;-74
2020/12/23 02:10:13;;;;;;;1.48;1.48;;;12.60;99.90;;;13.44;84.51;98002.06;5204041;28;20289;-74
2020/12/23 02:12:46;;;;;;;1.55;1.55;;;12.60;99.90;;;13.46;84.75;98001.34;5205148;28;20226;-75
2020/12/23 02:15:18;;;;;;;1.58;1.58;;;12.60;99.90;;;13.47;85.00;97992.81;5204537;28;20696;-75
2020/12/23 02:17:50;;;;;;;1.60;1.60;;;12.60;99.90;;;13.44;84.84;97987.53;5204307;28;20205;-76
2020/12/23 02:20:22;;;;;;;1.55;1.45;;;12.60;99.90;;;13.56;83.80;97981.22;5204740;28;20194;-77
2020/12/23 02:22:55;;;;;;;1.77;1.67;;;12.60;99.90;;;13.55;84.33;97985.50;5204776;28;20596;-77
2020/12/23 02:25:27;;;;;;;1.60;1.60;;;12.60;99.90;;;13.52;83.83;97985.34;5204832;28;20580;-74
2020/12/23 02:27:59;;;;;;;1.77;1.67;;;12.60;99.90;;;13.46;84.13;97985.94;5205586;28;20565;-74
2020/12/23 02:30:31;;;;;;;1.60;1.50;;;12.60;99.90;;;13.43;85.16;97983.22;5204727;28;20562;-75
2020/12/23 02:33:03;;;;;;;1.90;1.80;;;12.50;99.90;;;13.40;85.33;97971.94;5204722;28;20226;-75
2020/12/23 02:35:35;;;;;;;1.77;1.70;;;12.50;99.90;;;13.41;84.55;97977.13;5204086;28;20569;-75
2020/12/23 02:38:08;;;;;;;1.60;1.60;;;12.60;99.90;;;13.44;85.68;97968.69;5205069;28;20202;-76
2020/12/23 02:40:41;;;;;;;1.70;1.70;;;12.50;99.90;;;13.43;84.10;97974.66;5203612;28;20202;-74
2020/12/23 02:43:13;;;;;;;1.88;1.77;;;12.50;99.90;;;13.40;84.58;97974.50;5204653;28;20308;-74
2020/12/23 02:45:45;;;;;;;1.80;1.70;;;12.50;99.90;;;13.39;84.39;97970.16;5204374;28;20285;-74
2020/12/23 02:48:18;;;;;;;1.70;1.60;;;12.50;99.90;;;13.36;85.03;97968.31;5203943;28;20654;-75
2020/12/23 02:50:50;;;;;;;1.92;1.83;;;12.40;99.90;;;13.39;84.17;97958.22;5204036;28;20255;-74
2020/12/23 02:53:23;;;;;;;2.10;2.00;;;12.40;99.90;;;13.40;84.48;97954.84;5196932;28;20308;-74
2020/12/23 02:55:55;;;;;;;1.75;1.67;;;12.40;99.90;;;13.37;83.65;97951.25;5204456;28;20220;-76
2020/12/23 02:58:27;;;;;;;1.88;1.77;;;12.50;99.90;;;13.34;83.77;97954.56;5204292;28;20232;-78
2020/12/23 03:00:59;;;;;;;1.60;1.60;;;12.50;99.90;;;13.31;84.11;97948.41;5204131;28;20193;-74
2020/12/23 03:03:31;;;;;;;1.60;1.60;;;12.40;99.90;;;13.32;84.33;97953.59;5203891;28;20205;-74
2020/12/23 03:06:03;;;;;;;1.80;1.70;;;12.40;99.90;;;13.36;83.45;97952.91;5204512;28;20193;-74
2020/12/23 03:08:36;;;;;;;1.88;1.77;;;12.40;99.90;;;13.28;84.95;97944.88;5203927;28;20290;-74
2020/12/23 03:11:08;;;;;;;1.70;1.70;;;12.40;99.90;;;13.28;83.71;97944.88;5204481;28;20308;-75
2020/12/23 03:13:40;;;;;;;2.00;1.90;;;12.40;99.90;;;13.26;84.30;97943.03;5203154;28;20257;-75
2020/12/23 03:16:12;;;;;;;1.63;1.58;;;12.40;99.90;;;13.20;85.14;97940.16;5203872;28;20248;-74
2020/12/23 03:18:46;;;;;;;2.00;1.90;;;12.40;99.90;;;13.15;84.75;97945.03;5203819;28;20194;-74
2020/12/23 03:21:18;;;;;;;1.75;1.65;;;12.40;99.90;;;13.13;85.48;97943.22;5203168;28;20232;-75
2020/12/23 03:23:51;;;;;;;1.95;1.85;;;12.40;99.90;;;13.08;86.26;97933.63;5183938;28;20725;-74
2020/12/23 03:26:23;;;;;;;1.55;1.55;;;12.40;99.90;;;13.07;85.95;97929.28;5187810;28;20230;-74
2020/12/23 03:28:55;;;;;;;1.90;1.80;;;12.30;99.90;;;13.02;86.87;97925.63;5204339;28;20208;-75
2020/12/23 03:31:29;;;;;;;1.65;1.65;;;12.30;99.90;;;13.00;87.13;97932.34;5203354;28;20224;-75
2020/12/23 03:34:01;;;;;;;1.95;1.85;;;12.30;99.90;;;12.98;87.55;97931.41;5203854;28;20767;-78
2020/12/23 03:36:33;;;;;;;2.00;1.90;;;12.20;99.90;;;12.96;86.83;97920.19;5203350;28;20492;-74
2020/12/23 03:39:07;;;;;;;1.90;1.90;;;12.20;99.90;;;12.96;87.03;97925.34;5203646;28;20281;-75
2020/12/23 03:41:39;;;;;;;2.25;2.15;;;12.20;99.90;;;12.98;87.02;97921.13;5203071;28;20250;-75
2020/12/23 03:44:11;;;;;;;1.77;1.67;;;12.20;99.90;;;13.01;87.11;97923.84;5203492;28;20220;-74
2020/12/23 03:46:43;;;;;;;1.70;1.70;;;12.20;99.90;;;12.98;86.66;97917.69;5204003;28;20661;-74
2020/12/23 03:49:16;;;;;;;1.80;1.70;;;12.30;99.90;;;13.07;86.63;97915.56;5203123;28;20574;-74
2020/12/23 03:51:48;;;;;;;2.00;1.90;;;12.30;99.90;;;13.08;86.60;97920.78;5202486;28;20229;-74
2020/12/23 03:54:21;;;;;;;2.00;1.90;;;12.30;99.90;;;13.10;85.80;97917.41;5203760;28;20218;-74
2020/12/23 03:56:53;;;;;;;1.80;1.70;;;12.30;99.90;;;13.12;85.83;97923.50;5203372;28;20271;-74
2020/12/23 03:59:25;;;;;;;2.17;1.90;;;12.30;99.90;;;13.13;85.94;97917.53;5204319;28;20438;-74
2020/12/23 04:01:57;;;;;;;1.60;1.60;;;12.30;99.90;;;13.14;85.63;97914.19;5202705;28;20217;-75
2020/12/23 04:04:29;;;;;;;1.80;1.80;;;12.30;99.90;;;13.13;86.31;97917.53;5203862;28;20297;-74
2020/12/23 04:07:01;;;;;;;2.10;2.00;;;12.30;99.90;;;13.08;86.61;97915.66;5203279;28;20297;-74
2020/12/23 04:09:34;;;;;;;1.80;1.70;;;12.40;99.90;;;13.08;85.92;97915.66;5203873;28;20212;-74
2020/12/23 04:12:06;;;;;;;2.50;1.80;;;12.30;99.90;;;13.12;85.76;97910.66;5203814;28;20217;-74
2020/12/23 04:14:39;;;;;;;2.00;1.90;;;12.30;99.90;;;13.19;84.06;97907.56;5202553;28;20305;-74
2020/12/23 04:17:11;;;;;;;1.90;1.90;;;12.40;99.90;;;13.08;85.95;97912.22;5203244;28;20202;-75
2020/12/23 04:19:43;;;;;;;1.80;1.70;;;12.30;99.90;;;12.97;86.56;97908.25;5204179;28;20288;-74
2020/12/23 04:22:16;;;;;;;1.83;1.75;;;12.30;99.90;;;12.96;86.08;97899.69;5202818;28;20265;-74
2020/12/23 04:24:49;;;;;;;1.70;1.70;;;12.20;99.90;;;12.98;86.88;97900.59;5203534;28;20206;-75
2020/12/23 04:27:21;;;;;;;1.45;1.45;;;12.20;99.90;;;12.96;87.39;97894.53;5203777;28;20574;-77
2020/12/23 04:29:53;;;;;;;2.17;2.08;;;12.20;99.90;;;13.24;84.47;97906.97;5203225;28;20216;-75
2020/12/23 04:32:25;;;;;;;2.45;1.92;;;12.40;99.90;;;13.16;86.10;97903.19;5204455;28;20218;-76
2020/12/23 04:35:02;;;;;;;2.05;1.95;;;12.40;99.90;;;13.04;85.90;97906.03;5206116;28;20222;-78
2020/12/23 04:37:35;;;;;;;1.90;1.77;;;12.20;99.90;;;12.93;87.05;97896.94;5206740;28;20284;-75
2020/12/23 04:40:08;;;;;;;2.28;2.15;;;12.20;99.90;;;12.76;88.55;97890.09;5207846;28;20198;-73
2020/12/23 04:42:41;;;;;;;2.00;1.90;;;12.20;99.90;;;12.66;88.63;97899.03;5206957;28;20300;-73
2020/12/23 04:45:13;;;;;;;1.95;1.85;;;12.10;99.90;;;12.56;90.79;97896.81;5207097;28;20240;-73
2020/12/23 04:47:47;;;;;;;1.85;1.85;;;12.10;99.90;;;12.49;90.70;97905.03;5207023;28;20288;-72
2020/12/23 04:50:21;;;;;;;2.00;1.90;;;12.00;99.90;;;12.47;92.08;97897.25;5207023;28;20228;-73
2020/12/23 04:52:53;;;;;;;2.50;2.40;;;12.00;99.90;;;12.57;91.49;97896.91;5206534;28;20217;-73
2020/12/23 04:55:27;;;;;;;2.97;2.22;;;12.00;99.90;;;12.35;91.78;97901.75;5206567;28;20217;-73
2020/12/23 04:58:00;;;;;;;2.47;2.38;;;11.90;99.90;;;12.27;92.40;97901.34;5206997;28;20296;-74
2020/12/23 05:00:32;;;;;;;2.22;2.13;;;11.80;99.90;;;12.22;93.87;97904.47;5206358;28;20206;-73
2020/12/23 05:03:04;;;;;;;2.40;2.30;;;11.70;99.90;;;12.18;94.80;97899.19;5206462;28;20248;-72
2020/12/23 05:05:36;;;;;;;2.55;2.45;;;11.70;99.90;;;12.15;94.97;97893.94;5206356;28;20205;-73
2020/12/23 05:08:09;;;;;;;2.35;2.15;;;11.70;99.90;;;12.14;95.78;97899.00;5206585;28;20229;-73
2020/12/23 05:10:43;;;;;;;2.25;2.15;;;11.60;99.90;;;12.16;96.26;97897.38;5205564;28;20204;-73
2020/12/23 05:13:18;;;;;;;2.10;2.00;;;11.60;99.90;;;12.12;96.84;97886.09;5206371;28;20267;-73
2020/12/23 05:15:50;;;;;;;3.13;2.83;;;11.60;99.90;;;12.19;97.77;97879.63;5205576;28;20217;-73
2020/12/23 05:18:31;;;;;;;3.08;2.80;;;11.60;99.90;;;12.11;97.33;97886.91;5206423;28;20280;-72
2020/12/23 05:21:14;;;;;;;5.40;5.00;;;11.60;99.90;;;12.08;98.53;97891.88;5205668;28;20238;-73
2020/12/23 05:23:48;;;;;;;3.80;3.53;;;11.60;99.90;;;12.03;98.90;97893.31;5205981;28;20281;-76
2020/12/23 05:26:22;;;;;;;3.25;3.05;;;11.50;99.90;;;11.92;98.46;97889.31;5207850;28;20202;-73
2020/12/23 05:28:54;;;;;;;3.65;3.30;;;11.40;99.90;;;11.89;98.73;97884.03;5206327;28;20197;-74
2020/12/23 05:31:32;;;;;;;3.30;3.10;;;11.40;99.90;;;11.83;99.68;97883.69;5206401;28;20335;-72
2020/12/23 05:34:06;;;;;;;3.33;3.10;;;11.40;99.90;;;11.84;100.00;97882.84;5205743;28;20313;-76
2020/12/23 05:36:42;;;;;;;3.20;3.00;;;11.40;99.90;;;11.87;100.00;97885.63;5208252;28;20209;-73
2020/12/23 05:39:14;;;;;;;3.17;2.97;;;11.40;99.90;;;11.86;100.00;97884.75;5206694;28;20926;-72
2020/12/23 05:41:49;;;;;;;3.08;2.88;;;11.40;99.90;;;11.89;100.00;97889.16;5205863;28;20213;-74
2020/12/23 05:44:21;;;;;;;3.30;3.10;;;11.40;99.90;;;11.95;100.00;97886.91;5211018;28;20696;-74
2020/12/23 05:46:55;;;;;;;3.50;3.30;;;11.50;99.90;;;11.94;100.00;97878.34;5207026;28;20297;-74
2020/12/23 05:49:27;;;;;;;3.30;3.05;;;11.50;99.90;;;11.95;100.00;97887.78;5205936;28;20713;-72
2020/12/23 05:52:00;;;;;;;2.55;2.45;;;11.50;99.90;;;11.97;100.00;97882.75;5205677;28;20238;-74
2020/12/23 05:54:35;;;;;;;2.33;2.22;;;11.50;99.90;;;11.96;100.00;97878.44;5212513;28;20229;-74
2020/12/23 05:57:08;;;;;;;2.58;2.47;;;11.50;99.90;;;11.97;100.00;97871.63;5210888;28;20198;-74
2020/12/23 05:59:40;;;;;;;2.40;2.30;;;11.40;99.90;;;11.99;100.00;97872.56;5205027;28;20669;-76
2020/12/23 06:02:13;;;;;;;3.03;2.80;;;11.50;99.90;;;11.98;100.00;97864.00;5206561;28;20221;-73
2020/12/23 06:04:45;;;;;;;2.80;2.70;;;11.40;99.90;;;12.00;100.00;97864.09;5204937;28;20225;-73
2020/12/23 06:07:25;;;;;;;3.30;3.08;;;11.40;99.90;;;12.03;100.00;97860.00;5205034;28;20296;-73
2020/12/23 06:09:59;;;;;;;3.67;3.00;;;11.40;99.90;;;11.90;100.00;97850.81;5206046;28;20301;-76
2020/12/23 06:12:38;;;;;;;2.80;2.63;;;11.40;99.90;;;11.84;100.00;97859.81;5205395;28;20603;-76
2020/12/23 06:15:17;;;;;;;3.08;2.88;;;11.30;99.90;;;11.75;100.00;97855.09;5204709;28;20413;-74
2020/12/23 06:17:49;;;;;;;3.20;3.00;;;11.30;99.90;;;11.77;100.00;97852.63;5205051;28;20201;-76
2020/12/23 06:20:24;;;;;;;3.85;3.47;;;11.30;99.90;;;11.76;100.00;97845.72;5203931;28;20756;-74
2020/12/23 06:22:57;;;;;;;3.70;3.40;;;11.30;99.90;;;11.79;100.00;97848.44;5205031;28;20251;-77
2020/12/23 06:25:32;;;;;;;4.00;3.70;;;11.30;99.90;;;11.78;100.00;97834.75;5205532;28;20657;-76
2020/12/23 06:28:08;;;;;;;4.25;3.85;;;11.20;99.90;;;11.84;100.00;97834.19;5205265;28;20674;-76
2020/12/23 06:30:42;;;;;;;3.78;3.55;;;11.30;99.90;;;11.84;100.00;97832.50;5204715;28;20225;-74
2020/12/23 06:33:14;;;;;;;3.65;3.33;;;11.30;99.90;;;11.84;100.00;97837.63;5184507;28;20211;-76
2020/12/23 06:35:47;;;;;;;3.22;3.03;;;11.30;99.90;;;11.83;100.00;97830.75;5200768;28;20222;-73
2020/12/23 06:38:23;;;;;;;3.00;2.80;;;11.20;99.90;;;11.74;100.00;97832.84;5205213;28;20687;-73
2020/12/23 06:41:00;;;;;;;2.95;2.85;;;11.10;99.90;;;11.77;100.00;97822.78;5207788;28;20285;-72
2020/12/23 06:43:55;;;;;;;3.22;2.92;;;11.20;99.90;;;11.78;100.00;97829.66;5202877;28;20376;-72
2020/12/23 06:47:07;;;;;;;3.53;2.60;;;11.10;99.90;;;11.78;100.00;97833.88;5210459;28;20208;-75
2020/12/23 06:52:47;;;;;;;3.25;3.05;;;11.10;99.90;;;11.70;100.00;97830.91;5263414;22;20236;-81
2020/12/23 06:55:19;;;;;;;3.92;3.60;;;11.10;99.90;;;11.70;100.00;97833.47;5183306;28;20224;-82
2020/12/23 06:57:58;;;;;;;3.53;3.33;;;11.10;99.90;;;11.68;100.00;97825.75;5243672;28;20577;-80
2020/12/23 07:00:39;;;;;;;3.30;3.10;;;11.10;99.90;;;11.69;100.00;97819.81;5222080;28;20222;-80
2020/12/23 07:03:32;;;;;;;3.10;2.92;;;11.10;99.90;;;11.70;100.00;97823.25;5190888;28;20217;-79
2020/12/23 07:06:04;;;;;;;3.40;3.20;;;11.10;99.90;;;11.72;100.00;97824.22;5205815;28;20281;-81
2020/12/23 07:08:38;;;;;;;3.00;2.80;;;11.10;99.90;;;11.70;100.00;97825.81;5198962;28;20191;-81
2020/12/23 07:11:17;;;;;;;3.20;3.00;;;11.10;99.90;;;11.71;100.00;97836.13;5186504;28;20257;-81
2020/12/23 07:13:57;;;;;;;3.63;3.33;;;11.10;99.90;;;11.71;100.00;97836.13;5186359;28;20206;-81
2020/12/23 07:16:40;;;;;;;3.38;3.08;;;11.10;99.90;;;11.72;100.00;97831.88;5197266;28;20199;-81
2020/12/23 07:19:15;;;;;;;2.70;2.60;;;11.10;99.90;;;11.71;100.00;97827.59;5192613;28;20202;-82
2020/12/23 07:21:48;;;;;;;3.05;2.75;;;11.10;99.90;;;11.69;100.00;97837.72;5193303;28;20221;-79
2020/12/23 07:24:22;;;;;;;2.83;2.72;;;11.00;99.90;;;11.69;100.00;97837.72;5203437;28;20190;-81
2020/12/23 07:26:55;;;;;;;2.95;2.75;;;11.10;99.90;;;11.69;100.00;97839.41;5186002;28;20195;-81
2020/12/23 07:29:38;;;;;;;3.17;3.00;;;11.00;99.90;;;11.67;100.00;97836.75;5192693;28;20198;-81
2020/12/23 07:32:13;;;;;;;3.38;3.17;;;11.00;99.90;;;11.63;100.00;97844.22;5203566;28;20249;-81
2020/12/23 07:34:50;;;;;;;3.88;3.67;;;10.90;99.90;;;11.62;100.00;97837.34;5217676;28;20244;-81
2020/12/23 07:37:22;;;;;;;4.05;3.85;;;10.90;99.90;;;11.57;100.00;97839.66;5234480;28;20300;-81
2020/12/23 07:39:54;;;;;;;3.80;3.60;;;10.90;99.90;;;11.57;100.00;97844.78;5210486;28;20194;-81
2020/12/23 07:42:26;;;;;;;4.18;3.95;;;10.90;99.90;;;11.61;100.00;97840.69;5211943;28;20635;-81
2020/12/23 07:44:58;;;;;;;5.00;4.60;;;10.90;99.90;;;11.63;100.00;97839.97;5195415;28;20195;-81
2020/12/23 07:47:31;;;;;;;3.30;3.10;;;10.90;99.90;;;11.56;100.00;97845.59;5202262;28;20204;-81
2020/12/23 07:50:06;;;;;;;4.10;3.22;;;10.90;99.90;;;11.53;100.00;97842.84;5200326;28;20198;-81
2020/12/23 07:52:40;;;;;;;7.40;5.47;;;10.90;99.90;;;11.51;100.00;97839.34;5207977;28;20198;-81
2020/12/23 07:55:13;;;;;;;17.25;9.45;;;10.90;99.90;;;11.53;100.00;97847.94;5196198;28;20747;-81
2020/12/23 07:57:48;;;;;;;11.15;7.65;;;10.90;99.90;;;11.53;100.00;97842.84;5207294;28;20675;-80
2020/12/23 08:00:21;;;;;;;8.07;7.28;;;10.90;99.90;;;11.53;100.00;97841.97;5197352;28;20222;-81
2020/12/23 08:02:54;;;;;;;7.65;5.97;;;10.90;99.90;;;11.54;100.00;97847.19;5190961;28;20690;-81
2020/12/23 08:05:27;;;;;;;6.35;5.75;;;10.90;99.90;;;11.53;100.00;97845.41;5208764;28;20201;-81
2020/12/23 08:07:59;;;;;;;7.00;6.40;;;10.90;99.90;;;11.54;100.00;97851.41;5205030;28;20192;-83
2020/12/23 08:10:31;;;;;;;5.75;5.28;;;10.90;99.90;;;11.52;100.00;97835.97;5195651;28;20229;-82
2020/12/23 08:13:05;;;;;;;5.43;4.93;;;10.90;99.90;;;11.56;100.00;97840.47;5203353;28;20209;-81
2020/12/23 08:15:37;;;;;;;4.32;4.03;;;10.90;99.90;;;11.55;100.00;97837.81;5207076;28;20225;-81
2020/12/23 08:18:12;;;;;;;5.25;4.85;;;11.00;99.90;;;11.59;100.00;97843.19;5215380;28;20311;-81
2020/12/23 08:25:22;;;;;;;4.20;3.90;;;10.90;99.90;;;11.63;100.00;97844.22;5135900;28;20209;-81
2020/12/23 08:27:57;;;;;;;4.05;3.75;;;11.00;99.90;;;11.63;100.00;97839.97;5201362;28;20594;-81
2020/12/23 08:30:32;;;;;;;4.05;3.85;;;11.00;99.90;;;11.64;100.00;97841.72;5202774;28;20634;-81
2020/12/23 08:33:08;;;;;;;4.75;4.45;;;11.00;99.90;;;11.67;100.00;97836.75;5198381;28;20197;-80
2020/12/23 08:35:43;;;;;;;8.50;7.75;;;11.10;99.90;;;11.69;100.00;97842.84;5207661;28;20222;-81
2020/12/23 08:38:21;;;;;;;5.35;5.05;;;11.10;99.90;;;11.74;100.00;97845.66;5208742;28;20198;-81
2020/12/23 08:40:56;;;;;;;5.00;4.70;;;11.10;99.90;;;11.72;100.00;97840.44;5204396;28;20280;-81
2020/12/23 08:43:29;;;;;;;5.00;4.70;;;11.10;99.90;;;11.74;100.00;97848.22;5200363;28;20696;-81
2020/12/23 08:46:01;;;;;;;4.45;4.15;;;11.10;99.90;;;11.76;100.00;97843.16;5195394;28;20682;-82
2020/12/23 08:48:33;;;;;;;4.43;4.13;;;11.10;99.90;;;11.80;100.00;97843.41;5211160;28;20209;-83
2020/12/23 08:51:06;;;;;;;4.22;4.03;;;11.20;99.90;;;11.84;100.00;97841.88;5198197;28;20248;-81
2020/12/23 08:53:39;;;;;;;4.75;4.45;;;11.20;99.90;;;11.87;100.00;97844.63;5215137;28;20204;-81
2020/12/23 08:56:22;;;;;;;4.85;4.55;;;11.20;99.90;;;11.89;100.00;97835.34;5202021;28;20218;-80
2020/12/23 08:59:00;;;;;;;4.88;4.57;;;11.20;99.90;;;11.89;100.00;97840.47;5210192;28;20185;-81
2020/12/23 09:01:34;;;;;;;5.30;4.90;;;11.20;99.90;;;11.94;100.00;97842.47;5201099;28;20214;-81
2020/12/23 09:04:08;;;;;;;8.05;7.45;;;11.20;99.90;;;11.91;100.00;97837.19;5197015;28;20194;-81
2020/12/23 09:06:43;;;;;;;9.88;9.07;;;11.20;99.90;;;11.97;100.00;97841.75;5204596;28;20190;-81
2020/12/23 09:09:17;;;;;;;9.25;8.43;;;11.20;99.90;;;11.98;100.00;97835.81;5203364;28;20198;-82
2020/12/23 09:11:53;;;;;;;8.90;8.20;;;11.30;99.90;;;12.00;100.00;97836.78;5208433;28;20284;-84
2020/12/23 09:14:29;;;;;;;8.32;7.68;;;11.30;99.90;;;12.00;100.00;97833.34;5202289;28;20194;-81
2020/12/23 09:17:07;;;;;;;7.07;6.47;;;11.30;99.90;;;12.01;100.00;97842.78;5208377;28;20581;-79
2020/12/23 09:19:54;;;;;;;6.40;6.00;;;11.20;99.90;;;12.03;100.00;97834.38;5221112;28;20724;-80
2020/12/23 09:22:32;;;;;;;6.43;6.03;;;11.30;99.90;;;12.04;100.00;97841.25;5230723;28;20208;-80
2020/12/23 09:25:16;;;;;;;6.97;6.47;;;11.30;99.90;;;12.06;100.00;97839.66;5209948;28;20196;-81
2020/12/23 09:27:50;;;;;;;7.95;7.35;;;11.30;99.90;;;12.09;100.00;97842.38;5208134;28;20194;-81
2020/12/23 09:30:33;;;;;;;5.13;4.80;;;11.40;99.90;;;12.14;100.00;97835.81;5197860;28;20599;-81
2020/12/23 09:33:09;;;;;;;5.35;4.97;;;11.40;99.90;;;12.18;100.00;97827.47;5207532;28;20225;-80
2020/12/23 09:35:44;;;;;;;5.85;5.43;;;11.40;99.90;;;12.24;100.00;97824.31;5209841;28;20221;-81
2020/12/23 09:38:23;;;;;;;5.57;5.20;;;11.40;99.90;;;12.26;100.00;97824.41;5219999;28;20263;-80
2020/12/23 09:40:58;;;;;;;5.10;4.80;;;11.40;99.90;;;12.25;100.00;97823.53;5202215;28;20250;-81
2020/12/23 09:43:32;;;;;;;4.93;4.63;;;11.50;99.90;;;12.24;100.00;97818.31;5197785;28;20279;-80
2020/12/23 09:46:08;;;;;;;4.82;4.53;;;11.50;99.90;;;12.28;100.00;97817.69;5211107;28;20304;-80
2020/12/23 09:48:40;;;;;;;4.20;4.00;;;11.50;99.90;;;12.31;100.00;97817.84;5207271;28;20557;-81
2020/12/23 09:51:12;;;;;;;4.97;4.53;;;11.60;99.90;;;12.35;100.00;97806.94;5206217;28;20293;-81
2020/12/23 09:53:45;;;;;;;4.18;3.88;;;11.60;99.90;;;12.40;100.00;97808.03;5209999;28;20209;-81
2020/12/23 09:56:17;;;;;;;4.13;3.83;;;11.70;99.90;;;12.46;100.00;97810.03;5210625;28;20769;-81
2020/12/23 09:58:49;;;;;;;4.50;4.20;;;11.70;99.90;;;12.44;100.00;97804.81;5200933;28;20588;-80
2020/12/23 10:01:21;;;;;;;4.40;4.00;;;11.70;99.90;;;12.37;100.00;97805.31;5207920;28;20308;-81
2020/12/23 10:03:53;;;;;;;5.07;4.78;;;11.60;99.90;;;12.36;100.00;97808.66;5206258;28;20200;-80
2020/12/23 10:06:25;;;;;;;4.47;4.25;;;11.60;99.90;;;12.36;100.00;97808.66;5208614;28;20305;-81
2020/12/23 10:08:58;;;;;;;5.57;5.18;;;11.70;99.90;;;12.36;100.00;97796.75;5207876;28;20202;-81
2020/12/23 10:11:30;;;;;;;5.10;4.70;;;11.60;99.90;;;12.35;100.00;97789.84;5204569;28;20249;-82
2020/12/23 10:14:02;;;;;;;4.03;3.72;;;11.70;99.90;;;12.39;100.00;97791.78;5212856;28;20297;-81
2020/12/23 10:16:35;;;;;;;4.07;3.78;;;11.70;99.90;;;12.43;100.00;97791.94;5190348;28;20371;-81
2020/12/23 10:19:07;;;;;;;5.88;5.47;;;11.80;99.90;;;12.47;100.00;97788.69;5198397;28;20198;-81
2020/12/23 10:21:39;;;;;;;6.45;6.05;;;11.80;99.90;;;12.51;100.00;97781.25;5208943;28;20246;-81
2020/12/23 10:24:12;;;;;;;5.00;4.60;;;11.80;99.90;;;12.50;100.00;97776.03;5200225;28;20266;-80
2020/12/23 10:26:47;;;;;;;6.57;5.97;;;11.90;99.90;;;12.51;100.00;97778.69;5201630;28;20308;-80
2020/12/23 10:29:20;;;;;;;7.25;6.75;;;11.80;99.90;;;12.51;100.00;97770.97;5210041;28;20197;-81
2020/12/23 10:31:52;;;;;;;6.93;6.38;;;11.80;99.90;;;12.48;100.00;97758.03;5202134;28;20225;-81
2020/12/23 10:34:24;;;;;;;7.20;6.63;;;11.90;99.90;;;12.54;100.00;97758.31;5205716;28;20209;-81
2020/12/23 10:36:56;;;;;;;7.35;6.65;;;11.80;99.90;;;12.47;100.00;97763.06;5194418;28;20704;-81
2020/12/23 10:39:29;;;;;;;7.65;6.32;;;11.80;99.90;;;12.46;100.00;97757.06;5220250;28;20665;-81
2020/12/23 10:42:01;;;;;;;8.05;7.20;;;11.80;99.90;;;12.47;100.00;97747.69;5203802;28;20223;-82
2020/12/23 10:44:34;;;;;;;8.52;7.75;;;11.80;99.90;;;12.49;100.00;97749.50;5188985;28;20202;-81
2020/12/23 10:47:06;;;;;;;12.32;11.13;;;11.90;99.90;;;12.50;100.00;97742.69;5191611;28;20293;-82
2020/12/23 10:49:38;;;;;;;11.23;9.10;;;11.80;99.90;;;12.50;100.00;97743.56;5193574;28;20203;-80